Buoy 62910

sailwx.info

Track history (hours):
 
Tides and Currents Weather Stations Pressure Air Temp Water Temp Dewpoint Dewpoint Depression Visibility Wind Speed Wind Dir Waves Ship Positions

Drifting buoy 62910

Last reported at 2014-Jul-30 05:35 UTC. Time now 2014-Jul-30 07:10 UTC.
Position N 37°55' E 005°06'.

Water temperature 25.6 ° C

Date/timePositionNaut miles runAvg speedWind from/ knotsBaromVisibWave heightAir tempDewpointWater temp
2014-Jul-30 05:35N 37°55' E 005°06'0 0.0 25.6
2014-Jul-30 04:51N 37°55' E 005°06'0 0.0 25.6
2014-Jul-30 04:47N 37°55' E 005°06'0 6.2 25.6
2014-Jul-30 04:44N 37°55' E 005°06'0 0.0
2014-Jul-30 04:40N 37°55' E 005°06'0 0.0 25.7
2014-Jul-30 04:26N 37°55' E 005°06'0 0.4 25.6
2014-Jul-30 03:56N 37°55' E 005°06'1 0.6 25.7
2014-Jul-30 03:03N 37°54' E 005°05'0 0.0 25.7
2014-Jul-30 02:23N 37°54' E 005°05'0 0.7 25.7
2014-Jul-30 02:19N 37°54' E 005°05'0 0.1 25.7
2014-Jul-30 00:35N 37°54' E 005°05'2 0.7 25.7
2014-Jul-29 22:19N 37°53' E 005°06'1 5.3 25.7
2014-Jul-29 22:12N 37°53' E 005°07'0 0.0
2014-Jul-29 21:31N 37°53' E 005°07'0 0.7 25.8
2014-Jul-29 21:26N 37°53' E 005°07'0 0.0 25.8
2014-Jul-29 21:22N 37°53' E 005°07'0 0.2 25.8
2014-Jul-29 20:33N 37°53' E 005°07'2 0.5 25.8
2014-Jul-29 17:17N 37°52' E 005°09'0 0.4 25.9
2014-Jul-29 16:27N 37°52' E 005°09'0 0.3 26.0
2014-Jul-29 15:34N 37°52' E 005°09'0 0.0 26.1
2014-Jul-29 14:47N 37°52' E 005°09'1 1.3 26.2
2014-Jul-29 13:59N 37°52' E 005°10'1 0.6 26.1
2014-Jul-29 12:11N 37°51' E 005°11'1 1.1 26.0
2014-Jul-29 10:57N 37°52' E 005°09'0 0.0 25.9
2014-Jul-29 10:09N 37°52' E 005°09'113.4 25.9
2014-Jul-29 10:06N 37°51' E 005°10'0 0.1 25.9
2014-Jul-29 09:14N 37°52' E 005°10'0 0.0 25.9
2014-Jul-29 08:30N 37°52' E 005°10'1 7.7 25.8
2014-Jul-29 08:25N 37°52' E 005°10'0 0.0 25.8
2014-Jul-29 07:34N 37°52' E 005°10'0 0.0 25.8
2014-Jul-29 06:41N 37°52' E 005°10'1 9.1 25.8
2014-Jul-29 06:37N 37°51' E 005°09'0 0.0 25.8
2014-Jul-29 05:58N 37°51' E 005°09'0 0.4 25.8
2014-Jul-29 05:02N 37°51' E 005°10'0 4.6 25.8
2014-Jul-29 04:58N 37°52' E 005°10'0 0.5 25.8
2014-Jul-29 04:18N 37°51' E 005°10'0 2.1 25.8
2014-Jul-29 04:14N 37°51' E 005°10'0 2.3 25.8
2014-Jul-29 04:09N 37°51' E 005°10'0 0.0 25.8
2014-Jul-29 03:21N 37°51' E 005°10'0 0.0 25.8
2014-Jul-29 03:16N 37°51' E 005°10'0 0.5 25.8
2014-Jul-29 02:28N 37°51' E 005°09'0 0.3 25.8
2014-Jul-29 00:51N 37°51' E 005°10'221.6 25.8
2014-Jul-29 00:46N 37°49' E 005°09'0 0.0 25.8
2014-Jul-28 22:38N 37°49' E 005°09'0 0.0 25.9
2014-Jul-28 22:35N 37°49' E 005°09'0 0.0 25.9
2014-Jul-28 21:47N 37°49' E 005°09'0 0.0 25.9
2014-Jul-28 20:52N 37°49' E 005°09'0 0.3 25.9
2014-Jul-28 20:01N 37°49' E 005°09'1 0.8 25.9
2014-Jul-28 19:19N 37°49' E 005°10'117.2 25.9
2014-Jul-28 19:17N 37°49' E 005°09'117.0 25.9
2014-Jul-28 19:12N 37°48' E 005°10'1 0.4 25.9
2014-Jul-28 17:40N 37°49' E 005°10'0 0.0 26.0
2014-Jul-28 16:38N 37°49' E 005°10'0 0.3 26.0
2014-Jul-28 14:54N 37°48' E 005°10'0 0.4 26.0
2014-Jul-28 14:10N 37°48' E 005°09'1 0.3 26.0
2014-Jul-28 12:29N 37°48' E 005°10'0 0.0 26.0
2014-Jul-28 12:25N 37°48' E 005°10'0 0.1 26.0
2014-Jul-28 11:15N 37°48' E 005°10'0 0.0 25.9
2014-Jul-28 10:32N 37°48' E 005°10'0 0.0 25.9
2014-Jul-28 10:29N 37°48' E 005°10'1 0.6 25.9
2014-Jul-28 08:45N 37°47' E 005°09'0 0.0 25.8
2014-Jul-28 07:09N 37°47' E 005°09'0 0.4 25.7
2014-Jul-28 06:18N 37°47' E 005°09'0 0.0 25.7
2014-Jul-28 05:30N 37°47' E 005°09'0 0.0 25.7
2014-Jul-28 05:14N 37°47' E 005°09'0 1.7 25.7
2014-Jul-28 05:07N 37°47' E 005°09'0 0.0 25.7
2014-Jul-28 04:39N 37°47' E 005°09'0 1.0 25.7
2014-Jul-28 04:18N 37°46' E 005°09'0 0.0 25.7
2014-Jul-28 03:48N 37°46' E 005°09'0 1.1 25.4
2014-Jul-28 03:32N 37°47' E 005°09'1 0.8 25.7
2014-Jul-28 02:44N 37°46' E 005°10'0 0.0 25.8
2014-Jul-28 02:39N 37°46' E 005°10'0 0.2 25.8
2014-Jul-28 01:03N 37°46' E 005°10'0 3.6 25.8
2014-Jul-28 00:58N 37°46' E 005°10'0 0.0 25.8
2014-Jul-27 22:56N 37°46' E 005°10'0 0.2 25.9
2014-Jul-27 21:21N 37°46' E 005°10'1 4.1 26.0
2014-Jul-27 21:12N 37°45' E 005°10'0 0.0 26.0
2014-Jul-27 20:28N 37°45' E 005°10'0 0.0 26.0
2014-Jul-27 20:24N 37°45' E 005°10'0 0.0 26.0
2014-Jul-27 19:51N 37°45' E 005°10'0 0.0 26.0
2014-Jul-27 19:31N 37°45' E 005°10'0 0.0 26.0
2014-Jul-27 18:14N 37°45' E 005°10'0 2.8 26.2
2014-Jul-27 18:05N 37°46' E 005°10'0 0.4 26.2
2014-Jul-27 16:49N 37°45' E 005°10'1 3.8 26.4
2014-Jul-27 16:36N 37°45' E 005°09'1 5.2 26.4
2014-Jul-27 16:29N 37°45' E 005°09'0 4.1 26.5
2014-Jul-27 16:26N 37°45' E 005°09'0 0.1 26.5
2014-Jul-27 15:10N 37°45' E 005°09'0 0.5 26.8
2014-Jul-27 14:43N 37°45' E 005°09'0 1.7
2014-Jul-27 14:38N 37°45' E 005°09'0 0.5 26.9
2014-Jul-27 14:19N 37°45' E 005°09'0 0.3 26.9
2014-Jul-27 13:26N 37°45' E 005°08'0 0.1 26.9
2014-Jul-27 12:40N 37°45' E 005°09'0 2.4 26.8
2014-Jul-27 12:33N 37°45' E 005°09'0 0.0 26.8
2014-Jul-27 11:36N 37°45' E 005°09'0 0.4 26.5
2014-Jul-27 10:54N 37°45' E 005°09'0 0.0 26.1
2014-Jul-27 10:50N 37°45' E 005°09'1 6.7 26.1
2014-Jul-27 10:43N 37°44' E 005°08'0 0.0
2014-Jul-27 10:01N 37°44' E 005°08'0 0.0 26.0
2014-Jul-27 09:57N 37°44' E 005°08'0 0.0 25.9
2014-Jul-27 09:15N 37°44' E 005°08'0 0.5
2014-Jul-27 09:09N 37°44' E 005°09'0 4.0 25.8
2014-Jul-27 09:04N 37°44' E 005°08'0 0.0 25.8
2014-Jul-27 08:20N 37°44' E 005°08'1 9.5 25.7
2014-Jul-27 08:13N 37°44' E 005°07'0 0.0 25.7
2014-Jul-27 06:46N 37°44' E 005°07'0 3.8 25.6
2014-Jul-27 06:43N 37°44' E 005°07'0 0.0 25.6
2014-Jul-27 06:04N 37°44' E 005°07'0 0.5 25.6
2014-Jul-27 05:25N 37°44' E 005°07'0 0.4 25.6
2014-Jul-27 05:18N 37°44' E 005°07'0 4.3 25.6
2014-Jul-27 05:14N 37°44' E 005°08'0 0.0 25.6
2014-Jul-27 05:04N 37°44' E 005°08'0 0.4 25.6
2014-Jul-27 04:29N 37°44' E 005°08'0 0.0
2014-Jul-27 04:16N 37°44' E 005°08'0 0.0 25.7
2014-Jul-27 03:41N 37°44' E 005°08'0 0.5 25.7
2014-Jul-27 03:25N 37°44' E 005°08'0 0.9 25.7
2014-Jul-27 03:20N 37°44' E 005°08'0 0.1 25.7
2014-Jul-27 02:51N 37°44' E 005°08'0 4.1 25.7
2014-Jul-27 02:44N 37°43' E 005°08'0 0.0 25.7
2014-Jul-27 01:14N 37°43' E 005°08'0 5.2 25.7
2014-Jul-27 01:11N 37°43' E 005°07'0 0.0 25.7
2014-Jul-26 22:30N 37°43' E 005°07'0 0.0 25.8
2014-Jul-26 21:42N 37°43' E 005°07'0 1.6 25.8
2014-Jul-26 21:35N 37°43' E 005°07'124.7 25.8
2014-Jul-26 21:32N 37°43' E 005°06'0 0.0 25.8
2014-Jul-26 20:55N 37°43' E 005°06'211.5 25.8
2014-Jul-26 20:47N 37°44' E 005°07'0 0.0 25.8
2014-Jul-26 20:44N 37°44' E 005°07'0 0.0 25.8
2014-Jul-26 20:23N 37°44' E 005°07'1 2.2 25.8
2014-Jul-26 20:00N 37°43' E 005°07'0 1.1 25.8
2014-Jul-26 19:53N 37°44' E 005°07'0 0.0 25.8
2014-Jul-26 19:10N 37°44' E 005°07'0 0.0 26.6
2014-Jul-26 18:46N 37°44' E 005°07'0 3.0 25.9
2014-Jul-26 18:40N 37°44' E 005°07'0 0.0 25.9
2014-Jul-26 18:28N 37°44' E 005°07'1 0.5 25.9
2014-Jul-26 17:08N 37°44' E 005°06'1 5.9 26.0
2014-Jul-26 17:01N 37°43' E 005°06'0 0.0 26.0
2014-Jul-26 17:00N 37°43' E 005°06'0 0.0 26.0
2014-Jul-26 16:49N 37°43' E 005°06'0 0.1 26.0
2014-Jul-26 15:19N 37°43' E 005°06'0 0.0 26.0
2014-Jul-26 15:10N 37°43' E 005°06'1 1.3 26.0
2014-Jul-26 14:31N 37°43' E 005°05'0 0.0 26.0
2014-Jul-26 13:31N 37°43' E 005°05'0 0.0 26.0
2014-Jul-26 12:49N 37°43' E 005°05'0 0.5 25.9
2014-Jul-26 11:54N 37°42' E 005°05'0 0.0 25.9
2014-Jul-26 11:06N 37°42' E 005°05'0 0.1 25.8
2014-Jul-26 10:19N 37°42' E 005°05'0 0.5 25.7
2014-Jul-26 09:34N 37°42' E 005°05'0 0.0 25.7
2014-Jul-26 09:31N 37°42' E 005°05'0 0.2 25.7
2014-Jul-26 08:40N 37°42' E 005°06'0 4.1 25.6
2014-Jul-26 08:34N 37°43' E 005°05'0 0.0 25.6
2014-Jul-26 07:50N 37°43' E 005°05'0 0.0 25.6
2014-Jul-26 06:32N 37°43' E 005°05'0 0.2 25.6
2014-Jul-26 05:32N 37°43' E 005°05'1 0.4 25.6
2014-Jul-26 03:55N 37°43' E 005°05'0 0.0 25.6
2014-Jul-26 03:50N 37°43' E 005°05'0 2.3 25.6
2014-Jul-26 03:48N 37°43' E 005°05'0 0.0 25.6
2014-Jul-26 03:13N 37°43' E 005°05'0 0.0 25.7
2014-Jul-26 03:02N 37°43' E 005°05'0 0.3 25.7
2014-Jul-26 01:25N 37°43' E 005°04'0 1.7 25.7
2014-Jul-26 01:21N 37°43' E 005°04'1 0.3 25.7
2014-Jul-25 22:00N 37°43' E 005°03'1 6.3 25.8
2014-Jul-25 21:55N 37°43' E 005°04'0 0.0 25.7
2014-Jul-25 21:12N 37°43' E 005°04'110.9
2014-Jul-25 21:07N 37°43' E 005°02'0 0.0 25.8
2014-Jul-25 21:04N 37°43' E 005°02'0 0.3 25.8
2014-Jul-25 20:14N 37°43' E 005°03'0 0.0 25.8
2014-Jul-25 19:26N 37°43' E 005°03'0 0.0 25.8
2014-Jul-25 19:16N 37°43' E 005°03'1 0.5 25.8
2014-Jul-25 17:35N 37°43' E 005°02'1 1.6 25.9
2014-Jul-25 17:16N 37°43' E 005°02'0 3.3 25.9
2014-Jul-25 17:10N 37°42' E 005°02'0 0.3 25.9
2014-Jul-25 15:31N 37°43' E 005°03'0 0.0 25.8
2014-Jul-25 15:28N 37°43' E 005°03'1 1.3 25.8
2014-Jul-25 14:42N 37°42' E 005°02'0 0.0 25.8
2014-Jul-25 13:49N 37°42' E 005°02'1 9.0 25.9
2014-Jul-25 13:45N 37°43' E 005°02'0 0.0 25.9
2014-Jul-25 12:58N 37°43' E 005°02'0 0.0 26.0
2014-Jul-25 11:28N 37°43' E 005°02'0 1.4
2014-Jul-25 11:13N 37°43' E 005°02'0 0.3
2014-Jul-25 10:36N 37°43' E 005°02'0 0.5 25.5
2014-Jul-25 09:56N 37°43' E 005°02'0 0.0 25.4
2014-Jul-25 09:52N 37°43' E 005°02'1 1.0 25.4
2014-Jul-25 09:01N 37°43' E 005°02'0 2.2 25.4
2014-Jul-25 08:56N 37°42' E 005°02'226.7 25.4
2014-Jul-25 08:52N 37°44' E 005°01'0 0.0 25.4
2014-Jul-25 08:06N 37°44' E 005°01'0 0.0 25.4
2014-Jul-25 07:04N 37°44' E 005°01'0 0.0 25.4
2014-Jul-25 05:54N 37°44' E 005°01'0 1.8 25.4
2014-Jul-25 05:41N 37°44' E 005°02'118.4 25.4
2014-Jul-25 05:38N 37°44' E 005°00'1 2.4 25.4
2014-Jul-25 05:24N 37°44' E 005°01'1 0.5 25.4
2014-Jul-25 04:13N 37°44' E 005°00'0 1.0 25.4
2014-Jul-25 04:04N 37°44' E 005°00'0 1.3 25.4
2014-Jul-25 03:45N 37°44' E 005°01'1 2.4 25.4
2014-Jul-25 03:13N 37°44' E 004°59'0 0.0 25.4
2014-Jul-25 01:34N 37°44' E 004°59'2 0.5 25.4
2014-Jul-24 22:21N 37°42' E 004°59'0 0.0 25.5
2014-Jul-24 22:14N 37°42' E 004°59'0 0.0 25.5
2014-Jul-24 21:27N 37°42' E 004°59'0 0.0 25.5
2014-Jul-24 20:32N 37°42' E 004°59'0 0.1 25.5
2014-Jul-24 19:50N 37°42' E 004°59'1 9.3
2014-Jul-24 19:46N 37°42' E 004°58'0 0.0 25.5
2014-Jul-24 19:42N 37°42' E 004°58'1 0.5 25.5
2014-Jul-24 18:07N 37°42' E 004°59'1 2.4 25.5
2014-Jul-24 17:37N 37°43' E 004°60'1 4.8 25.5
2014-Jul-24 17:23N 37°42' E 004°59'0 0.0 25.5
2014-Jul-24 16:28N 37°42' E 004°59'0 0.8 25.5
2014-Jul-24 15:58N 37°42' E 004°60'1 6.0 25.6
2014-Jul-24 15:44N 37°43' E 004°58'0 0.0 25.6
2014-Jul-24 15:37N 37°43' E 004°58'0 0.0 25.6
2014-Jul-24 14:53N 37°43' E 004°58'0 0.0 25.6
2014-Jul-24 14:01N 37°43' E 004°58'0 6.8 25.5
2014-Jul-24 13:58N 37°43' E 004°58'0 0.0 25.5
2014-Jul-24 13:10N 37°43' E 004°58'0 0.2 25.5
2014-Jul-24 11:00N 37°43' E 004°58'0 0.7 25.5
2014-Jul-24 10:15N 37°44' E 004°58'0 4.5 25.4
2014-Jul-24 10:12N 37°44' E 004°58'0 0.1 25.4
2014-Jul-24 09:19N 37°44' E 004°58'1 1.0 25.4
2014-Jul-24 08:33N 37°44' E 004°58'1 9.9 25.4
2014-Jul-24 08:28N 37°44' E 004°57'0 0.0 25.4
2014-Jul-24 07:35N 37°44' E 004°57'0 0.0 25.4
2014-Jul-24 06:20N 37°44' E 004°57'0 4.7 25.4
2014-Jul-24 06:17N 37°44' E 004°57'0 0.9 25.4
2014-Jul-24 05:54N 37°44' E 004°57'0 3.7 25.4
2014-Jul-24 05:50N 37°44' E 004°56'0 0.1 25.4
2014-Jul-24 04:38N 37°44' E 004°56'0 0.0 25.4
2014-Jul-24 04:15N 37°44' E 004°56'0 0.4 25.4
2014-Jul-24 03:24N 37°44' E 004°56'0 0.0 25.4
2014-Jul-24 02:34N 37°44' E 004°56'1 0.8 25.4
2014-Jul-24 01:45N 37°44' E 004°56'0 0.0
2014-Jul-24 00:04N 37°44' E 004°56'0 0.0 25.6
2014-Jul-23 22:38N 37°44' E 004°56'0 0.0 25.7
2014-Jul-23 21:50N 37°44' E 004°56'0 0.0 25.7
2014-Jul-23 21:46N 37°44' E 004°56'0 0.0
2014-Jul-23 21:04N 37°44' E 004°56'0 1.6 25.8
2014-Jul-23 20:57N 37°44' E 004°56'0 0.0 25.8
2014-Jul-23 20:53N 37°44' E 004°56'0 0.0 25.8
2014-Jul-23 20:16N 37°44' E 004°56'0 0.0 25.8
2014-Jul-23 20:07N 37°44' E 004°56'0 0.0 25.8
2014-Jul-23 19:21N 37°44' E 004°56'1 5.9 25.9
2014-Jul-23 19:14N 37°45' E 004°56'0 0.2
2014-Jul-23 18:37N 37°45' E 004°56'0 0.8 26.0
2014-Jul-23 18:04N 37°45' E 004°56'0 0.0 26.0
2014-Jul-23 17:32N 37°45' E 004°56'0 0.0 26.1
2014-Jul-23 17:02N 37°45' E 004°56'1 9.8 26.1
2014-Jul-23 16:57N 37°45' E 004°57'0 0.0 26.2
2014-Jul-23 16:21N 37°45' E 004°57'0 0.0 26.2
2014-Jul-23 15:55N 37°45' E 004°57'1 0.8 26.2
2014-Jul-23 15:04N 37°46' E 004°56'1 4.1 26.3
2014-Jul-23 14:44N 37°47' E 004°55'0 0.0 26.3
2014-Jul-23 14:14N 37°47' E 004°55'1 7.4
2014-Jul-23 14:09N 37°47' E 004°55'0 0.0 26.3
2014-Jul-23 13:25N 37°47' E 004°55'0 0.0 26.3
2014-Jul-23 13:18N 37°47' E 004°55'0 0.0 26.3
2014-Jul-23 11:42N 37°47' E 004°55'0 2.8 26.1
2014-Jul-23 11:37N 37°47' E 004°55'0 1.4 26.1
2014-Jul-23 11:19N 37°48' E 004°55'1 0.6 26.0
2014-Jul-23 09:44N 37°48' E 004°54'0 0.0
2014-Jul-23 09:40N 37°48' E 004°54'1 0.8 25.9
2014-Jul-23 08:49N 37°48' E 004°53'0 0.0 25.8
2014-Jul-23 07:54N 37°48' E 004°53'0 0.0 25.7
2014-Jul-23 06:45N 37°48' E 004°53'0 0.0 25.7
2014-Jul-23 06:40N 37°48' E 004°53'0 1.7 25.7
2014-Jul-23 06:29N 37°48' E 004°53'1 2.0 25.7
2014-Jul-23 06:05N 37°49' E 004°53'0 0.0 25.7
2014-Jul-23 05:03N 37°49' E 004°53'0 0.7 25.7
2014-Jul-23 04:47N 37°49' E 004°53'0 0.9 25.7
2014-Jul-23 04:22N 37°49' E 004°53'0 0.1 25.8
2014-Jul-23 03:35N 37°49' E 004°53'0 0.3 25.8
2014-Jul-23 02:47N 37°49' E 004°53'1 8.4 25.8
2014-Jul-23 02:43N 37°50' E 004°52'0 0.1 25.8
2014-Jul-23 01:56N 37°50' E 004°52'214.9 25.8
2014-Jul-23 01:49N 37°51' E 004°53'0 0.0 25.8
2014-Jul-23 00:15N 37°51' E 004°53'0 0.0 25.9
2014-Jul-23 00:11N 37°51' E 004°53'0 0.0 25.9
2014-Jul-22 22:17N 37°51' E 004°53'1 5.7 26.0
2014-Jul-22 22:08N 37°52' E 004°53'0 0.0 26.0
2014-Jul-22 21:22N 37°52' E 004°53'1 7.5 26.1
2014-Jul-22 21:18N 37°53' E 004°53'0 0.0 26.1
2014-Jul-22 20:38N 37°53' E 004°53'1 4.6 26.2
2014-Jul-22 20:31N 37°52' E 004°53'110.8 26.2
2014-Jul-22 20:27N 37°53' E 004°53'0 0.6 26.2
2014-Jul-22 19:36N 37°54' E 004°53'0 0.6 26.3
2014-Jul-22 19:09N 37°54' E 004°53'1 3.4 26.3
2014-Jul-22 18:53N 37°55' E 004°52'0 0.0 26.4
2014-Jul-22 18:23N 37°55' E 004°52'0 0.0 26.5
2014-Jul-22 17:43N 37°55' E 004°52'0 0.0 26.6
2014-Jul-22 17:34N 37°55' E 004°52'0 0.0 26.6
2014-Jul-22 17:30N 37°55' E 004°52'0 2.8 26.6
2014-Jul-22 17:27N 37°55' E 004°52'0 0.7 26.7
2014-Jul-22 16:50N 37°55' E 004°52'1 0.8 26.8
2014-Jul-22 16:06N 37°55' E 004°52'1 1.1 26.8
2014-Jul-22 15:13N 37°56' E 004°51'0 0.0 26.7
2014-Jul-22 15:07N 37°56' E 004°51'0 0.5 26.7
2014-Jul-22 14:23N 37°56' E 004°51'0 2.2 26.6
2014-Jul-22 14:20N 37°56' E 004°51'1 1.0 26.6
2014-Jul-22 13:32N 37°56' E 004°50'1 0.6 26.5
2014-Jul-22 11:49N 37°57' E 004°50'0 0.0 26.4
2014-Jul-22 11:37N 37°57' E 004°50'0 0.0 26.3
2014-Jul-22 10:55N 37°57' E 004°50'0 0.0 26.4
2014-Jul-22 10:05N 37°57' E 004°50'0 0.0
2014-Jul-22 10:02N 37°57' E 004°50'0 4.7 26.3
2014-Jul-22 09:58N 37°58' E 004°50'0 0.0 26.3
2014-Jul-22 09:16N 37°58' E 004°50'0 0.9 26.2
2014-Jul-22 09:12N 37°58' E 004°50'0 0.2 26.0
2014-Jul-22 08:23N 37°58' E 004°50'1 8.8 25.8
2014-Jul-22 08:16N 37°59' E 004°50'0 0.0 25.8
2014-Jul-22 07:08N 37°59' E 004°50'0 2.7 25.4
2014-Jul-22 07:03N 37°59' E 004°50'0 4.9 25.4
2014-Jul-22 07:00N 37°59' E 004°50'1 0.8 25.4
2014-Jul-22 06:15N 37°59' E 004°50'0 0.5 25.4
2014-Jul-22 05:26N 37°59' E 004°51'0 0.0 25.4
2014-Jul-22 05:21N 37°59' E 004°51'1 0.7 25.4
2014-Jul-22 04:37N 37°60' E 004°50'0 0.6 25.4
2014-Jul-22 03:47N 38°00' E 004°50'0 3.1 25.4
2014-Jul-22 03:44N 38°00' E 004°51'1 8.4 25.5
2014-Jul-22 03:40N 38°01' E 004°50'0 0.6 25.5
2014-Jul-22 02:56N 38°01' E 004°50'234.4 25.5
2014-Jul-22 02:52N 38°03' E 004°51'0 0.0 25.5
2014-Jul-22 02:06N 38°03' E 004°51'0 0.0 25.5
2014-Jul-22 00:27N 38°03' E 004°51'247.0 25.6
2014-Jul-22 00:24N 38°05' E 004°49'0 0.0 25.6
2014-Jul-21 22:31N 38°05' E 004°49'1 0.9 25.7
2014-Jul-21 21:36N 38°06' E 004°49'0 0.0 25.7
2014-Jul-21 20:57N 38°06' E 004°49'1 5.7 25.7
2014-Jul-21 20:48N 38°06' E 004°48'0 0.0 25.7
2014-Jul-21 20:02N 38°06' E 004°48'110.3 25.8
2014-Jul-21 19:54N 38°07' E 004°47'1 0.2 25.8
2014-Jul-21 17:13N 38°07' E 004°46'0 0.0 26.0
2014-Jul-21 17:09N 38°07' E 004°46'1 0.9 26.0
2014-Jul-21 16:23N 38°08' E 004°46'0 0.0 26.0
2014-Jul-21 16:20N 38°08' E 004°46'0 1.8 26.0
2014-Jul-21 16:18N 38°08' E 004°46'0 0.6 26.0
2014-Jul-21 15:32N 38°08' E 004°46'0 2.1 26.0
2014-Jul-21 15:23N 38°08' E 004°46'0 0.3 26.0
2014-Jul-21 14:30N 38°08' E 004°46'0 0.1 25.9
2014-Jul-21 13:46N 38°08' E 004°46'1 0.4 25.9
2014-Jul-21 12:00N 38°09' E 004°46'1 1.4 25.7
2014-Jul-21 11:14N 38°10' E 004°46'0 0.4 25.6
2014-Jul-21 10:25N 38°10' E 004°46'0 0.0 25.5
2014-Jul-21 10:21N 38°10' E 004°46'0 7.7 25.5
2014-Jul-21 10:18N 38°11' E 004°45'0 0.1 25.5
2014-Jul-21 09:32N 38°11' E 004°45'1 1.8 25.4
2014-Jul-21 08:44N 38°12' E 004°44'216.9
2014-Jul-21 08:37N 38°13' E 004°46'0 0.0 25.2
2014-Jul-21 07:28N 38°13' E 004°46'0 0.0 25.1
2014-Jul-21 06:24N 38°13' E 004°46'0 0.0 25.1
2014-Jul-21 05:56N 38°13' E 004°46'0 0.0 25.1
2014-Jul-21 05:51N 38°13' E 004°46'0 0.0 25.1
2014-Jul-21 05:49N 38°13' E 004°46'1 1.3 25.1
2014-Jul-21 04:53N 38°14' E 004°45'0 0.9 25.1
2014-Jul-21 04:47N 38°14' E 004°45'111.0 25.1
2014-Jul-21 04:42N 38°15' E 004°44'0 0.0 25.1
2014-Jul-21 04:10N 38°15' E 004°44'1 4.2 25.1
2014-Jul-21 03:54N 38°16' E 004°43'0 0.1 25.1
2014-Jul-21 03:05N 38°16' E 004°43'0 0.0 25.1
2014-Jul-21 02:21N 38°16' E 004°43'0 3.5 25.1
2014-Jul-21 02:17N 38°16' E 004°44'2 1.2 25.1
2014-Jul-21 00:38N 38°17' E 004°42'222.7 25.1
2014-Jul-21 00:33N 38°18' E 004°40'0 0.0 25.1
2014-Jul-20 22:05N 38°18' E 004°40'1 1.1 25.1
2014-Jul-20 21:10N 38°18' E 004°39'0 0.0 25.1
2014-Jul-20 20:26N 38°18' E 004°39'210.9 25.1
2014-Jul-20 20:15N 38°20' E 004°38'0 0.0
2014-Jul-20 20:11N 38°20' E 004°38'0 0.1 25.2
2014-Jul-20 19:31N 38°20' E 004°38'0 0.0
2014-Jul-20 18:33N 38°20' E 004°38'0 0.0 25.2
2014-Jul-20 17:38N 38°20' E 004°38'0 0.0 25.2
2014-Jul-20 16:55N 38°20' E 004°38'1 1.7 25.2
2014-Jul-20 16:27N 38°21' E 004°38'0 0.0 25.2
2014-Jul-20 15:57N 38°21' E 004°38'0 0.0 25.2
2014-Jul-20 14:48N 38°21' E 004°38'1 0.9 25.2
2014-Jul-20 14:16N 38°21' E 004°38'0 0.0 25.2
2014-Jul-20 13:57N 38°21' E 004°38'1 1.4 25.2
2014-Jul-20 13:02N 38°23' E 004°38'0 0.0 25.2
2014-Jul-20 12:13N 38°23' E 004°38'0 7.1 25.1
2014-Jul-20 12:09N 38°23' E 004°39'1 1.0 25.1
2014-Jul-20 10:43N 38°24' E 004°37'1 1.7 25.1
2014-Jul-20 09:58N 38°24' E 004°39'0 0.0 25.1
2014-Jul-20 09:53N 38°24' E 004°39'5 5.5 25.1
2014-Jul-20 08:57N 38°27' E 004°34'0 0.0 25.1
2014-Jul-20 08:09N 38°27' E 004°34'0 0.1 25.1
2014-Jul-20 06:23N 38°27' E 004°34'   25.1
Track history (hours):
 
Tides and Currents Weather Stations Pressure Air Temp Water Temp Dewpoint Dewpoint Depression Visibility Wind Speed Wind Dir Waves Ship Positions

Drifting buoy 62910

Last reported at 2014-Jul-30 05:35 UTC. Time now 2014-Jul-30 07:10 UTC.
Position N 37°55' E 005°06'.

Water temperature 25.6 ° C

Date/timePositionNaut miles runAvg speedWind from/ knotsBaromVisibWave heightAir tempDewpointWater temp
2014-Jul-30 05:35N 37°55' E 005°06'0 0.0 25.6
2014-Jul-30 04:51N 37°55' E 005°06'0 0.0 25.6
2014-Jul-30 04:47N 37°55' E 005°06'0 6.2 25.6
2014-Jul-30 04:44N 37°55' E 005°06'0 0.0
2014-Jul-30 04:40N 37°55' E 005°06'0 0.0 25.7
2014-Jul-30 04:26N 37°55' E 005°06'0 0.4 25.6
2014-Jul-30 03:56N 37°55' E 005°06'1 0.6 25.7
2014-Jul-30 03:03N 37°54' E 005°05'0 0.0 25.7
2014-Jul-30 02:23N 37°54' E 005°05'0 0.7 25.7
2014-Jul-30 02:19N 37°54' E 005°05'0 0.1 25.7
2014-Jul-30 00:35N 37°54' E 005°05'2 0.7 25.7
2014-Jul-29 22:19N 37°53' E 005°06'1 5.3 25.7
2014-Jul-29 22:12N 37°53' E 005°07'0 0.0
2014-Jul-29 21:31N 37°53' E 005°07'0 0.7 25.8
2014-Jul-29 21:26N 37°53' E 005°07'0 0.0 25.8
2014-Jul-29 21:22N 37°53' E 005°07'0 0.2 25.8
2014-Jul-29 20:33N 37°53' E 005°07'2 0.5 25.8
2014-Jul-29 17:17N 37°52' E 005°09'0 0.4 25.9
2014-Jul-29 16:27N 37°52' E 005°09'0 0.3 26.0
2014-Jul-29 15:34N 37°52' E 005°09'0 0.0 26.1
2014-Jul-29 14:47N 37°52' E 005°09'1 1.3 26.2
2014-Jul-29 13:59N 37°52' E 005°10'1 0.6 26.1
2014-Jul-29 12:11N 37°51' E 005°11'1 1.1 26.0
2014-Jul-29 10:57N 37°52' E 005°09'0 0.0 25.9
2014-Jul-29 10:09N 37°52' E 005°09'113.4 25.9
2014-Jul-29 10:06N 37°51' E 005°10'0 0.1 25.9
2014-Jul-29 09:14N 37°52' E 005°10'0 0.0 25.9
2014-Jul-29 08:30N 37°52' E 005°10'1 7.7 25.8
2014-Jul-29 08:25N 37°52' E 005°10'0 0.0 25.8
2014-Jul-29 07:34N 37°52' E 005°10'0 0.0 25.8
2014-Jul-29 06:41N 37°52' E 005°10'1 9.1 25.8
2014-Jul-29 06:37N 37°51' E 005°09'0 0.0 25.8
2014-Jul-29 05:58N 37°51' E 005°09'0 0.4 25.8
2014-Jul-29 05:02N 37°51' E 005°10'0 4.6 25.8
2014-Jul-29 04:58N 37°52' E 005°10'0 0.5 25.8
2014-Jul-29 04:18N 37°51' E 005°10'0 2.1 25.8
2014-Jul-29 04:14N 37°51' E 005°10'0 2.3 25.8
2014-Jul-29 04:09N 37°51' E 005°10'0 0.0 25.8
2014-Jul-29 03:21N 37°51' E 005°10'0 0.0 25.8
2014-Jul-29 03:16N 37°51' E 005°10'0 0.5 25.8
2014-Jul-29 02:28N 37°51' E 005°09'0 0.3 25.8
2014-Jul-29 00:51N 37°51' E 005°10'221.6 25.8
2014-Jul-29 00:46N 37°49' E 005°09'0 0.0 25.8
2014-Jul-28 22:38N 37°49' E 005°09'0 0.0 25.9
2014-Jul-28 22:35N 37°49' E 005°09'0 0.0 25.9
2014-Jul-28 21:47N 37°49' E 005°09'0 0.0 25.9
2014-Jul-28 20:52N 37°49' E 005°09'0 0.3 25.9
2014-Jul-28 20:01N 37°49' E 005°09'1 0.8 25.9
2014-Jul-28 19:19N 37°49' E 005°10'117.2 25.9
2014-Jul-28 19:17N 37°49' E 005°09'117.0 25.9
2014-Jul-28 19:12N 37°48' E 005°10'1 0.4 25.9
2014-Jul-28 17:40N 37°49' E 005°10'0 0.0 26.0
2014-Jul-28 16:38N 37°49' E 005°10'0 0.3 26.0
2014-Jul-28 14:54N 37°48' E 005°10'0 0.4 26.0
2014-Jul-28 14:10N 37°48' E 005°09'1 0.3 26.0
2014-Jul-28 12:29N 37°48' E 005°10'0 0.0 26.0
2014-Jul-28 12:25N 37°48' E 005°10'0 0.1 26.0
2014-Jul-28 11:15N 37°48' E 005°10'0 0.0 25.9
2014-Jul-28 10:32N 37°48' E 005°10'0 0.0 25.9
2014-Jul-28 10:29N 37°48' E 005°10'1 0.6 25.9
2014-Jul-28 08:45N 37°47' E 005°09'0 0.0 25.8
2014-Jul-28 07:09N 37°47' E 005°09'0 0.4 25.7
2014-Jul-28 06:18N 37°47' E 005°09'0 0.0 25.7
2014-Jul-28 05:30N 37°47' E 005°09'0 0.0 25.7
2014-Jul-28 05:14N 37°47' E 005°09'0 1.7 25.7
2014-Jul-28 05:07N 37°47' E 005°09'0 0.0 25.7
2014-Jul-28 04:39N 37°47' E 005°09'0 1.0 25.7
2014-Jul-28 04:18N 37°46' E 005°09'0 0.0 25.7
2014-Jul-28 03:48N 37°46' E 005°09'0 1.1 25.4
2014-Jul-28 03:32N 37°47' E 005°09'1 0.8 25.7
2014-Jul-28 02:44N 37°46' E 005°10'0 0.0 25.8
2014-Jul-28 02:39N 37°46' E 005°10'0 0.2 25.8
2014-Jul-28 01:03N 37°46' E 005°10'0 3.6 25.8
2014-Jul-28 00:58N 37°46' E 005°10'0 0.0 25.8
2014-Jul-27 22:56N 37°46' E 005°10'0 0.2 25.9
2014-Jul-27 21:21N 37°46' E 005°10'1 4.1 26.0
2014-Jul-27 21:12N 37°45' E 005°10'0 0.0 26.0
2014-Jul-27 20:28N 37°45' E 005°10'0 0.0 26.0
2014-Jul-27 20:24N 37°45' E 005°10'0 0.0 26.0
2014-Jul-27 19:51N 37°45' E 005°10'0 0.0 26.0
2014-Jul-27 19:31N 37°45' E 005°10'0 0.0 26.0
2014-Jul-27 18:14N 37°45' E 005°10'0 2.8 26.2
2014-Jul-27 18:05N 37°46' E 005°10'0 0.4 26.2
2014-Jul-27 16:49N 37°45' E 005°10'1 3.8 26.4
2014-Jul-27 16:36N 37°45' E 005°09'1 5.2 26.4
2014-Jul-27 16:29N 37°45' E 005°09'0 4.1 26.5
2014-Jul-27 16:26N 37°45' E 005°09'0 0.1 26.5
2014-Jul-27 15:10N 37°45' E 005°09'0 0.5 26.8
2014-Jul-27 14:43N 37°45' E 005°09'0 1.7
2014-Jul-27 14:38N 37°45' E 005°09'0 0.5 26.9
2014-Jul-27 14:19N 37°45' E 005°09'0 0.3 26.9
2014-Jul-27 13:26N 37°45' E 005°08'0 0.1 26.9
2014-Jul-27 12:40N 37°45' E 005°09'0 2.4 26.8
2014-Jul-27 12:33N 37°45' E 005°09'0 0.0 26.8
2014-Jul-27 11:36N 37°45' E 005°09'0 0.4 26.5
2014-Jul-27 10:54N 37°45' E 005°09'0 0.0 26.1
2014-Jul-27 10:50N 37°45' E 005°09'1 6.7 26.1
2014-Jul-27 10:43N 37°44' E 005°08'0 0.0
2014-Jul-27 10:01N 37°44' E 005°08'0 0.0 26.0
2014-Jul-27 09:57N 37°44' E 005°08'0 0.0 25.9
2014-Jul-27 09:15N 37°44' E 005°08'0 0.5
2014-Jul-27 09:09N 37°44' E 005°09'0 4.0 25.8
2014-Jul-27 09:04N 37°44' E 005°08'0 0.0 25.8
2014-Jul-27 08:20N 37°44' E 005°08'1 9.5 25.7
2014-Jul-27 08:13N 37°44' E 005°07'0 0.0 25.7
2014-Jul-27 06:46N 37°44' E 005°07'0 3.8 25.6
2014-Jul-27 06:43N 37°44' E 005°07'0 0.0 25.6
2014-Jul-27 06:04N 37°44' E 005°07'0 0.5 25.6
2014-Jul-27 05:25N 37°44' E 005°07'0 0.4 25.6
2014-Jul-27 05:18N 37°44' E 005°07'0 4.3 25.6
2014-Jul-27 05:14N 37°44' E 005°08'0 0.0 25.6
2014-Jul-27 05:04N 37°44' E 005°08'0 0.4 25.6
2014-Jul-27 04:29N 37°44' E 005°08'0 0.0
2014-Jul-27 04:16N 37°44' E 005°08'0 0.0 25.7
2014-Jul-27 03:41N 37°44' E 005°08'0 0.5 25.7
2014-Jul-27 03:25N 37°44' E 005°08'0 0.9 25.7
2014-Jul-27 03:20N 37°44' E 005°08'0 0.1 25.7
2014-Jul-27 02:51N 37°44' E 005°08'0 4.1 25.7
2014-Jul-27 02:44N 37°43' E 005°08'0 0.0 25.7
2014-Jul-27 01:14N 37°43' E 005°08'0 5.2 25.7
2014-Jul-27 01:11N 37°43' E 005°07'0 0.0 25.7
2014-Jul-26 22:30N 37°43' E 005°07'0 0.0 25.8
2014-Jul-26 21:42N 37°43' E 005°07'0 1.6 25.8
2014-Jul-26 21:35N 37°43' E 005°07'124.7 25.8
2014-Jul-26 21:32N 37°43' E 005°06'0 0.0 25.8
2014-Jul-26 20:55N 37°43' E 005°06'211.5 25.8
2014-Jul-26 20:47N 37°44' E 005°07'0 0.0 25.8
2014-Jul-26 20:44N 37°44' E 005°07'0 0.0 25.8
2014-Jul-26 20:23N 37°44' E 005°07'1 2.2 25.8
2014-Jul-26 20:00N 37°43' E 005°07'0 1.1 25.8
2014-Jul-26 19:53N 37°44' E 005°07'0 0.0 25.8
2014-Jul-26 19:10N 37°44' E 005°07'0 0.0 26.6
2014-Jul-26 18:46N 37°44' E 005°07'0 3.0 25.9
2014-Jul-26 18:40N 37°44' E 005°07'0 0.0 25.9
2014-Jul-26 18:28N 37°44' E 005°07'1 0.5 25.9
2014-Jul-26 17:08N 37°44' E 005°06'1 5.9 26.0
2014-Jul-26 17:01N 37°43' E 005°06'0 0.0 26.0
2014-Jul-26 17:00N 37°43' E 005°06'0 0.0 26.0
2014-Jul-26 16:49N 37°43' E 005°06'0 0.1 26.0
2014-Jul-26 15:19N 37°43' E 005°06'0 0.0 26.0
2014-Jul-26 15:10N 37°43' E 005°06'1 1.3 26.0
2014-Jul-26 14:31N 37°43' E 005°05'0 0.0 26.0
2014-Jul-26 13:31N 37°43' E 005°05'0 0.0 26.0
2014-Jul-26 12:49N 37°43' E 005°05'0 0.5 25.9
2014-Jul-26 11:54N 37°42' E 005°05'0 0.0 25.9
2014-Jul-26 11:06N 37°42' E 005°05'0 0.1 25.8
2014-Jul-26 10:19N 37°42' E 005°05'0 0.5 25.7
2014-Jul-26 09:34N 37°42' E 005°05'0 0.0 25.7
2014-Jul-26 09:31N 37°42' E 005°05'0 0.2 25.7
2014-Jul-26 08:40N 37°42' E 005°06'0 4.1 25.6
2014-Jul-26 08:34N 37°43' E 005°05'0 0.0 25.6
2014-Jul-26 07:50N 37°43' E 005°05'0 0.0 25.6
2014-Jul-26 06:32N 37°43' E 005°05'0 0.2 25.6
2014-Jul-26 05:32N 37°43' E 005°05'1 0.4 25.6
2014-Jul-26 03:55N 37°43' E 005°05'0 0.0 25.6
2014-Jul-26 03:50N 37°43' E 005°05'0 2.3 25.6
2014-Jul-26 03:48N 37°43' E 005°05'0 0.0 25.6
2014-Jul-26 03:13N 37°43' E 005°05'0 0.0 25.7
2014-Jul-26 03:02N 37°43' E 005°05'0 0.3 25.7
2014-Jul-26 01:25N 37°43' E 005°04'0 1.7 25.7
2014-Jul-26 01:21N 37°43' E 005°04'1 0.3 25.7
2014-Jul-25 22:00N 37°43' E 005°03'1 6.3 25.8
2014-Jul-25 21:55N 37°43' E 005°04'0 0.0 25.7
2014-Jul-25 21:12N 37°43' E 005°04'110.9
2014-Jul-25 21:07N 37°43' E 005°02'0 0.0 25.8
2014-Jul-25 21:04N 37°43' E 005°02'0 0.3 25.8
2014-Jul-25 20:14N 37°43' E 005°03'0 0.0 25.8
2014-Jul-25 19:26N 37°43' E 005°03'0 0.0 25.8
2014-Jul-25 19:16N 37°43' E 005°03'1 0.5 25.8
2014-Jul-25 17:35N 37°43' E 005°02'1 1.6 25.9
2014-Jul-25 17:16N 37°43' E 005°02'0 3.3 25.9
2014-Jul-25 17:10N 37°42' E 005°02'0 0.3 25.9
2014-Jul-25 15:31N 37°43' E 005°03'0 0.0 25.8
2014-Jul-25 15:28N 37°43' E 005°03'1 1.3 25.8
2014-Jul-25 14:42N 37°42' E 005°02'0 0.0 25.8
2014-Jul-25 13:49N 37°42' E 005°02'1 9.0 25.9
2014-Jul-25 13:45N 37°43' E 005°02'0 0.0 25.9
2014-Jul-25 12:58N 37°43' E 005°02'0 0.0 26.0
2014-Jul-25 11:28N 37°43' E 005°02'0 1.4
2014-Jul-25 11:13N 37°43' E 005°02'0 0.3
2014-Jul-25 10:36N 37°43' E 005°02'0 0.5 25.5
2014-Jul-25 09:56N 37°43' E 005°02'0 0.0 25.4
2014-Jul-25 09:52N 37°43' E 005°02'1 1.0 25.4
2014-Jul-25 09:01N 37°43' E 005°02'0 2.2 25.4
2014-Jul-25 08:56N 37°42' E 005°02'226.7 25.4
2014-Jul-25 08:52N 37°44' E 005°01'0 0.0 25.4
2014-Jul-25 08:06N 37°44' E 005°01'0 0.0 25.4
2014-Jul-25 07:04N 37°44' E 005°01'0 0.0 25.4
2014-Jul-25 05:54N 37°44' E 005°01'0 1.8 25.4
2014-Jul-25 05:41N 37°44' E 005°02'118.4 25.4
2014-Jul-25 05:38N 37°44' E 005°00'1 2.4 25.4
2014-Jul-25 05:24N 37°44' E 005°01'1 0.5 25.4
2014-Jul-25 04:13N 37°44' E 005°00'0 1.0 25.4
2014-Jul-25 04:04N 37°44' E 005°00'0 1.3 25.4
2014-Jul-25 03:45N 37°44' E 005°01'1 2.4 25.4
2014-Jul-25 03:13N 37°44' E 004°59'0 0.0 25.4
2014-Jul-25 01:34N 37°44' E 004°59'2 0.5 25.4
2014-Jul-24 22:21N 37°42' E 004°59'0 0.0 25.5
2014-Jul-24 22:14N 37°42' E 004°59'0 0.0 25.5
2014-Jul-24 21:27N 37°42' E 004°59'0 0.0 25.5
2014-Jul-24 20:32N 37°42' E 004°59'0 0.1 25.5
2014-Jul-24 19:50N 37°42' E 004°59'1 9.3
2014-Jul-24 19:46N 37°42' E 004°58'0 0.0 25.5
2014-Jul-24 19:42N 37°42' E 004°58'1 0.5 25.5
2014-Jul-24 18:07N 37°42' E 004°59'1 2.4 25.5
2014-Jul-24 17:37N 37°43' E 004°60'1 4.8 25.5
2014-Jul-24 17:23N 37°42' E 004°59'0 0.0 25.5
2014-Jul-24 16:28N 37°42' E 004°59'0 0.8 25.5
2014-Jul-24 15:58N 37°42' E 004°60'1 6.0 25.6
2014-Jul-24 15:44N 37°43' E 004°58'0 0.0 25.6
2014-Jul-24 15:37N 37°43' E 004°58'0 0.0 25.6
2014-Jul-24 14:53N 37°43' E 004°58'0 0.0 25.6
2014-Jul-24 14:01N 37°43' E 004°58'0 6.8 25.5
2014-Jul-24 13:58N 37°43' E 004°58'0 0.0 25.5
2014-Jul-24 13:10N 37°43' E 004°58'0 0.2 25.5
2014-Jul-24 11:00N 37°43' E 004°58'0 0.7 25.5
2014-Jul-24 10:15N 37°44' E 004°58'0 4.5 25.4
2014-Jul-24 10:12N 37°44' E 004°58'0 0.1 25.4
2014-Jul-24 09:19N 37°44' E 004°58'1 1.0 25.4
2014-Jul-24 08:33N 37°44' E 004°58'1 9.9 25.4
2014-Jul-24 08:28N 37°44' E 004°57'0 0.0 25.4
2014-Jul-24 07:35N 37°44' E 004°57'0 0.0 25.4
2014-Jul-24 06:20N 37°44' E 004°57'0 4.7 25.4
2014-Jul-24 06:17N 37°44' E 004°57'0 0.9 25.4
2014-Jul-24 05:54N 37°44' E 004°57'0 3.7 25.4
2014-Jul-24 05:50N 37°44' E 004°56'0 0.1 25.4
2014-Jul-24 04:38N 37°44' E 004°56'0 0.0 25.4
2014-Jul-24 04:15N 37°44' E 004°56'0 0.4 25.4
2014-Jul-24 03:24N 37°44' E 004°56'0 0.0 25.4
2014-Jul-24 02:34N 37°44' E 004°56'1 0.8 25.4
2014-Jul-24 01:45N 37°44' E 004°56'0 0.0
2014-Jul-24 00:04N 37°44' E 004°56'0 0.0 25.6
2014-Jul-23 22:38N 37°44' E 004°56'0 0.0 25.7
2014-Jul-23 21:50N 37°44' E 004°56'0 0.0 25.7
2014-Jul-23 21:46N 37°44' E 004°56'0 0.0
2014-Jul-23 21:04N 37°44' E 004°56'0 1.6 25.8
2014-Jul-23 20:57N 37°44' E 004°56'0 0.0 25.8
2014-Jul-23 20:53N 37°44' E 004°56'0 0.0 25.8
2014-Jul-23 20:16N 37°44' E 004°56'0 0.0 25.8
2014-Jul-23 20:07N 37°44' E 004°56'0 0.0 25.8
2014-Jul-23 19:21N 37°44' E 004°56'1 5.9 25.9
2014-Jul-23 19:14N 37°45' E 004°56'0 0.2
2014-Jul-23 18:37N 37°45' E 004°56'0 0.8 26.0
2014-Jul-23 18:04N 37°45' E 004°56'0 0.0 26.0
2014-Jul-23 17:32N 37°45' E 004°56'0 0.0 26.1
2014-Jul-23 17:02N 37°45' E 004°56'1 9.8 26.1
2014-Jul-23 16:57N 37°45' E 004°57'0 0.0 26.2
2014-Jul-23 16:21N 37°45' E 004°57'0 0.0 26.2
2014-Jul-23 15:55N 37°45' E 004°57'1 0.8 26.2
2014-Jul-23 15:04N 37°46' E 004°56'1 4.1 26.3
2014-Jul-23 14:44N 37°47' E 004°55'0 0.0 26.3
2014-Jul-23 14:14N 37°47' E 004°55'1 7.4
2014-Jul-23 14:09N 37°47' E 004°55'0 0.0 26.3
2014-Jul-23 13:25N 37°47' E 004°55'0 0.0 26.3
2014-Jul-23 13:18N 37°47' E 004°55'0 0.0 26.3
2014-Jul-23 11:42N 37°47' E 004°55'0 2.8 26.1
2014-Jul-23 11:37N 37°47' E 004°55'0 1.4 26.1
2014-Jul-23 11:19N 37°48' E 004°55'1 0.6 26.0
2014-Jul-23 09:44N 37°48' E 004°54'0 0.0
2014-Jul-23 09:40N 37°48' E 004°54'1 0.8 25.9
2014-Jul-23 08:49N 37°48' E 004°53'0 0.0 25.8
2014-Jul-23 07:54N 37°48' E 004°53'0 0.0 25.7
2014-Jul-23 06:45N 37°48' E 004°53'0 0.0 25.7
2014-Jul-23 06:40N 37°48' E 004°53'0 1.7 25.7
2014-Jul-23 06:29N 37°48' E 004°53'1 2.0 25.7
2014-Jul-23 06:05N 37°49' E 004°53'0 0.0 25.7
2014-Jul-23 05:03N 37°49' E 004°53'0 0.7 25.7
2014-Jul-23 04:47N 37°49' E 004°53'0 0.9 25.7
2014-Jul-23 04:22N 37°49' E 004°53'0 0.1 25.8
2014-Jul-23 03:35N 37°49' E 004°53'0 0.3 25.8
2014-Jul-23 02:47N 37°49' E 004°53'1 8.4 25.8
2014-Jul-23 02:43N 37°50' E 004°52'0 0.1 25.8
2014-Jul-23 01:56N 37°50' E 004°52'214.9 25.8
2014-Jul-23 01:49N 37°51' E 004°53'0 0.0 25.8
2014-Jul-23 00:15N 37°51' E 004°53'0 0.0 25.9
2014-Jul-23 00:11N 37°51' E 004°53'0 0.0 25.9
2014-Jul-22 22:17N 37°51' E 004°53'1 5.7 26.0
2014-Jul-22 22:08N 37°52' E 004°53'0 0.0 26.0
2014-Jul-22 21:22N 37°52' E 004°53'1 7.5 26.1
2014-Jul-22 21:18N 37°53' E 004°53'0 0.0 26.1
2014-Jul-22 20:38N 37°53' E 004°53'1 4.6 26.2
2014-Jul-22 20:31N 37°52' E 004°53'110.8 26.2
2014-Jul-22 20:27N 37°53' E 004°53'0 0.6 26.2
2014-Jul-22 19:36N 37°54' E 004°53'0 0.6 26.3
2014-Jul-22 19:09N 37°54' E 004°53'1 3.4 26.3
2014-Jul-22 18:53N 37°55' E 004°52'0 0.0 26.4
2014-Jul-22 18:23N 37°55' E 004°52'0 0.0 26.5
2014-Jul-22 17:43N 37°55' E 004°52'0 0.0 26.6
2014-Jul-22 17:34N 37°55' E 004°52'0 0.0 26.6
2014-Jul-22 17:30N 37°55' E 004°52'0 2.8 26.6
2014-Jul-22 17:27N 37°55' E 004°52'0 0.7 26.7
2014-Jul-22 16:50N 37°55' E 004°52'1 0.8 26.8
2014-Jul-22 16:06N 37°55' E 004°52'1 1.1 26.8
2014-Jul-22 15:13N 37°56' E 004°51'0 0.0 26.7
2014-Jul-22 15:07N 37°56' E 004°51'0 0.5 26.7
2014-Jul-22 14:23N 37°56' E 004°51'0 2.2 26.6
2014-Jul-22 14:20N 37°56' E 004°51'1 1.0 26.6
2014-Jul-22 13:32N 37°56' E 004°50'1 0.6 26.5
2014-Jul-22 11:49N 37°57' E 004°50'0 0.0 26.4
2014-Jul-22 11:37N 37°57' E 004°50'0 0.0 26.3
2014-Jul-22 10:55N 37°57' E 004°50'0 0.0 26.4
2014-Jul-22 10:05N 37°57' E 004°50'0 0.0
2014-Jul-22 10:02N 37°57' E 004°50'0 4.7 26.3
2014-Jul-22 09:58N 37°58' E 004°50'0 0.0 26.3
2014-Jul-22 09:16N 37°58' E 004°50'0 0.9 26.2
2014-Jul-22 09:12N 37°58' E 004°50'0 0.2 26.0
2014-Jul-22 08:23N 37°58' E 004°50'1 8.8 25.8
2014-Jul-22 08:16N 37°59' E 004°50'0 0.0 25.8
2014-Jul-22 07:08N 37°59' E 004°50'0 2.7 25.4
2014-Jul-22 07:03N 37°59' E 004°50'0 4.9 25.4
2014-Jul-22 07:00N 37°59' E 004°50'1 0.8 25.4
2014-Jul-22 06:15N 37°59' E 004°50'0 0.5 25.4
2014-Jul-22 05:26N 37°59' E 004°51'0 0.0 25.4
2014-Jul-22 05:21N 37°59' E 004°51'1 0.7 25.4
2014-Jul-22 04:37N 37°60' E 004°50'0 0.6 25.4
2014-Jul-22 03:47N 38°00' E 004°50'0 3.1 25.4
2014-Jul-22 03:44N 38°00' E 004°51'1 8.4 25.5
2014-Jul-22 03:40N 38°01' E 004°50'0 0.6 25.5
2014-Jul-22 02:56N 38°01' E 004°50'234.4 25.5
2014-Jul-22 02:52N 38°03' E 004°51'0 0.0 25.5
2014-Jul-22 02:06N 38°03' E 004°51'0 0.0 25.5
2014-Jul-22 00:27N 38°03' E 004°51'247.0 25.6
2014-Jul-22 00:24N 38°05' E 004°49'0 0.0 25.6
2014-Jul-21 22:31N 38°05' E 004°49'1 0.9 25.7
2014-Jul-21 21:36N 38°06' E 004°49'0 0.0 25.7
2014-Jul-21 20:57N 38°06' E 004°49'1 5.7 25.7
2014-Jul-21 20:48N 38°06' E 004°48'0 0.0 25.7
2014-Jul-21 20:02N 38°06' E 004°48'110.3 25.8
2014-Jul-21 19:54N 38°07' E 004°47'1 0.2 25.8
2014-Jul-21 17:13N 38°07' E 004°46'0 0.0 26.0
2014-Jul-21 17:09N 38°07' E 004°46'1 0.9 26.0
2014-Jul-21 16:23N 38°08' E 004°46'0 0.0 26.0
2014-Jul-21 16:20N 38°08' E 004°46'0 1.8 26.0
2014-Jul-21 16:18N 38°08' E 004°46'0 0.6 26.0
2014-Jul-21 15:32N 38°08' E 004°46'0 2.1 26.0
2014-Jul-21 15:23N 38°08' E 004°46'0 0.3 26.0
2014-Jul-21 14:30N 38°08' E 004°46'0 0.1 25.9
2014-Jul-21 13:46N 38°08' E 004°46'1 0.4 25.9
2014-Jul-21 12:00N 38°09' E 004°46'1 1.4 25.7
2014-Jul-21 11:14N 38°10' E 004°46'0 0.4 25.6
2014-Jul-21 10:25N 38°10' E 004°46'0 0.0 25.5
2014-Jul-21 10:21N 38°10' E 004°46'0 7.7 25.5
2014-Jul-21 10:18N 38°11' E 004°45'0 0.1 25.5
2014-Jul-21 09:32N 38°11' E 004°45'1 1.8 25.4
2014-Jul-21 08:44N 38°12' E 004°44'216.9
2014-Jul-21 08:37N 38°13' E 004°46'0 0.0 25.2
2014-Jul-21 07:28N 38°13' E 004°46'0 0.0 25.1
2014-Jul-21 06:24N 38°13' E 004°46'0 0.0 25.1
2014-Jul-21 05:56N 38°13' E 004°46'0 0.0 25.1
2014-Jul-21 05:51N 38°13' E 004°46'0 0.0 25.1
2014-Jul-21 05:49N 38°13' E 004°46'1 1.3 25.1
2014-Jul-21 04:53N 38°14' E 004°45'0 0.9 25.1
2014-Jul-21 04:47N 38°14' E 004°45'111.0 25.1
2014-Jul-21 04:42N 38°15' E 004°44'0 0.0 25.1
2014-Jul-21 04:10N 38°15' E 004°44'1 4.2 25.1
2014-Jul-21 03:54N 38°16' E 004°43'0 0.1 25.1
2014-Jul-21 03:05N 38°16' E 004°43'0 0.0 25.1
2014-Jul-21 02:21N 38°16' E 004°43'0 3.5 25.1
2014-Jul-21 02:17N 38°16' E 004°44'2 1.2 25.1
2014-Jul-21 00:38N 38°17' E 004°42'222.7 25.1
2014-Jul-21 00:33N 38°18' E 004°40'0 0.0 25.1
2014-Jul-20 22:05N 38°18' E 004°40'1 1.1 25.1
2014-Jul-20 21:10N 38°18' E 004°39'0 0.0 25.1
2014-Jul-20 20:26N 38°18' E 004°39'210.9 25.1
2014-Jul-20 20:15N 38°20' E 004°38'0 0.0
2014-Jul-20 20:11N 38°20' E 004°38'0 0.1 25.2
2014-Jul-20 19:31N 38°20' E 004°38'0 0.0
2014-Jul-20 18:33N 38°20' E 004°38'0 0.0 25.2
2014-Jul-20 17:38N 38°20' E 004°38'0 0.0 25.2
2014-Jul-20 16:55N 38°20' E 004°38'1 1.7 25.2
2014-Jul-20 16:27N 38°21' E 004°38'0 0.0 25.2
2014-Jul-20 15:57N 38°21' E 004°38'0 0.0 25.2
2014-Jul-20 14:48N 38°21' E 004°38'1 0.9 25.2
2014-Jul-20 14:16N 38°21' E 004°38'0 0.0 25.2
2014-Jul-20 13:57N 38°21' E 004°38'1 1.4 25.2
2014-Jul-20 13:02N 38°23' E 004°38'0 0.0 25.2
2014-Jul-20 12:13N 38°23' E 004°38'0 7.1 25.1
2014-Jul-20 12:09N 38°23' E 004°39'1 1.0 25.1
2014-Jul-20 10:43N 38°24' E 004°37'1 1.7 25.1
2014-Jul-20 09:58N 38°24' E 004°39'0 0.0 25.1
2014-Jul-20 09:53N 38°24' E 004°39'5 5.5 25.1
2014-Jul-20 08:57N 38°27' E 004°34'0 0.0 25.1
2014-Jul-20 08:09N 38°27' E 004°34'0 0.1 25.1
2014-Jul-20 06:23N 38°27' E 004°34'   25.1

Dump ship's entire track history